Sweeney Granite Mountains, California Weather observations

Data are for 10 minute period ending at time listed.
 Day   Time   Solar   Ave.   Ave.  Ave.  Vector  Max.   Baro.   Total    
  of    of     Rad.   Air    Rel.  Wind   Wind   Wind  Press.  Precip.   
Year   Day            Temp.  Hum.  Speed  Dir.   Gust                    
2015   (PST)  Kw/m2    F      %     mph   deg.    mph    mb.     in.     
-------------------------------------------------------------------------
 211    2:10   0.00   73.7    50    3.9   281     4.7   873.3    0.00 
 211    2:20   0.00   73.5    51    3.9   285     4.6   873.3    0.00 
 211    2:30   0.00   73.8    49    2.4   293     4.4   873.3    0.00 
 211    2:40   0.00   74.2    50    2.1   296     3.8   873.4    0.00 
 211    2:50   0.00   74.0    48    3.1   286     4.5   873.4    0.00 
 211    3:00   0.00   74.3    48    4.1   278     5.3   873.4    0.00 
 211    3:10   0.00   73.9    50    3.1   275     4.7   873.4    0.00 
 211    3:20   0.00   74.0    49    3.1   288     5.2   873.5    0.00 
 211    3:30   0.00   75.1    44    3.8   285     4.8   873.5    0.00 
 211    3:40   0.00   74.0    52    3.5   280     4.0   873.5    0.00 
 211    3:50   0.00   73.1    55    3.4   277     5.4   873.5    0.00 
 211    4:00   0.00   74.3    48    4.3   273     5.6   873.5    0.00 
 211    4:10   0.00   74.9    47    3.7   276     5.6   873.4    0.00 
 211    4:20   0.00   75.4    44    3.1   284     3.7   873.5    0.00 
 211    4:30   0.00   74.9    49    3.2   279     5.1   873.6    0.00 
 211    4:40   0.00   74.3    50    1.9   291     3.1   873.7    0.00 
 211    4:50   0.00   75.9    42    1.8   262     5.5   873.8    0.00 
 211    5:00   0.00   76.6    40    0.8   201     2.6   874.0    0.00 
 211    5:10   0.00   76.8    40    0.3   326     1.2   874.0    0.00 
 211    5:20   0.00   75.2    46    2.7   273     4.5   874.0    0.00 
 211    5:30   0.00   74.3    52    1.9   293     2.6   874.1    0.00 
 211    5:40   0.01   73.3    55    2.0   281     2.7   874.2    0.00 
 211    5:50   0.03   74.3    51    1.6   276     3.0   874.3    0.00 
 211    6:00   0.04   74.2    54    2.9   290     3.7   874.4    0.00 
 211    6:10   0.06   75.5    48    1.9   269     3.3   874.5    0.00 
 211    6:20   0.08   75.8    50    1.9   309     2.9   874.7    0.00 
 211    6:30   0.08   76.4    47    1.0   276     1.9   874.8    0.00 
 211    6:40   0.07   76.5    52    1.0   295     1.5   874.9    0.00 
 211    6:50   0.08   76.7    48    0.4   293     1.1   875.0    0.00 
 211    7:00   0.10   77.5    47    0.8   231     2.0   875.0    0.00 
 211    7:10   0.11   78.8    45    0.1   122     1.0   875.1    0.00 
 211    7:20   0.11   79.6    35    0.9   107     1.8   875.2    0.00 
 211    7:30   0.12   79.7    36    0.6    82     1.4   875.2    0.00 
 211    7:40   0.15   80.3    35    0.1   182     1.6   875.3    0.00 
 211    7:50   0.14   80.7    33    1.0   203     2.5   875.4    0.00 
 211    8:00   0.13   80.4    34    0.9   219     2.0   875.4    0.00 
 211    8:10   0.11   80.5    34    0.2   217     0.9   875.4    0.00 
 211    8:20   0.13   80.7    32    0.1   216     0.9   875.5    0.00 
 211    8:30   0.15   80.9    33    0.0   203     0.9   875.5    0.00 
 211    8:40   0.15   80.6    33    1.4   153     2.3   875.6    0.00 
 211    8:50   0.15   80.5    34    0.6   102     1.8   875.6    0.00 
 211    9:00   0.17   80.4    34    1.6   129     3.0   875.6    0.00 
 211    9:10   100.00  99999.0   99999  99999.0   99999   99999.0   99999.0   99999.00 
 211    9:20   100.00  99999.0   99999  99999.0   99999   99999.0   99999.0   99999.00 
 211    9:30   100.00  99999.0   99999  99999.0   99999   99999.0   99999.0   99999.00 
 211    9:40   100.00  99999.0   99999  99999.0   99999   99999.0   99999.0   99999.00 
 211    9:50   100.00  99999.0   99999  99999.0   99999   99999.0   99999.0   99999.00 
 211   10:00   100.00  99999.0   99999  99999.0   99999   99999.0   99999.0   99999.00 
 211   10:10   100.00  99999.0   99999  99999.0   99999   99999.0   99999.0   99999.00 
 211   10:20   100.00  99999.0   99999  99999.0   99999   99999.0   99999.0   99999.00 
 211   10:30   100.00  99999.0   99999  99999.0   99999   99999.0   99999.0   99999.00 
 211   10:40   100.00  99999.0   99999  99999.0   99999   99999.0   99999.0   99999.00 
 211   10:50   100.00  99999.0   99999  99999.0   99999   99999.0   99999.0   99999.00 
 211   11:00   100.00  99999.0   99999  99999.0   99999   99999.0   99999.0   99999.00 
 211   11:10   100.00  99999.0   99999  99999.0   99999   99999.0   99999.0   99999.00 
 211   11:20   100.00  99999.0   99999  99999.0   99999   99999.0   99999.0   99999.00 
 211   11:30   100.00  99999.0   99999  99999.0   99999   99999.0   99999.0   99999.00 
 211   11:40   100.00  99999.0   99999  99999.0   99999   99999.0   99999.0   99999.00 
 211   11:50   100.00  99999.0   99999  99999.0   99999   99999.0   99999.0   99999.00 
 211   12:00   100.00  99999.0   99999  99999.0   99999   99999.0   99999.0   99999.00 
 211   12:10   100.00  99999.0   99999  99999.0   99999   99999.0   99999.0   99999.00 
 211   12:20   100.00  99999.0   99999  99999.0   99999   99999.0   99999.0   99999.00 
 211   12:30   100.00  99999.0   99999  99999.0   99999   99999.0   99999.0   99999.00 
 211   12:40   100.00  99999.0   99999  99999.0   99999   99999.0   99999.0   99999.00 
 211   12:50   100.00  99999.0   99999  99999.0   99999   99999.0   99999.0   99999.00 
 211   13:00   100.00  99999.0   99999  99999.0   99999   99999.0   99999.0   99999.00 
 211   13:10   0.93   88.3    29    4.4   265     8.0   874.0    0.00 
 211   13:20   0.92   89.2    28    3.9   154     9.8   873.9    0.00 
 211   13:30   0.91   88.1    29    3.7   168    10.0   873.7    0.00 
 211   13:40   0.90   90.2    27    2.4   258     5.4   873.5    0.00 
 211   13:50   0.88   90.2    27    4.6   204    16.4   873.3    0.00 
 211   14:00   0.88   88.5    27    5.5   108    11.8   873.3    0.00 
 211   14:10   0.88   90.2    26    4.0   176    12.3   873.1    0.00 
 211   14:20   0.90   90.7    26    3.8   202     9.3   873.0    0.00 
 211   14:30   0.84   90.8    26    4.1   152    11.6   872.9    0.00 
 211   14:40   0.92   91.0    26    3.9   148     8.9   872.9    0.00 
 211   14:50   0.39   90.5    26    5.4   216    10.0   872.8    0.00 
 211   15:00   0.14   87.5    27    4.4   202     9.0   872.8    0.00 
 211   15:10   0.21   87.9    27    2.0   201     7.9   872.8    0.00 
 211   15:20   0.21   87.4    28    3.7   189     9.4   872.7    0.00 
 211   15:30   0.25   87.0    29    5.4   224     9.9   872.7    0.00 
 211   15:40   0.13   86.2    29    5.2   221    10.5   872.7    0.00 
 211   15:50   0.12   85.9    30    5.0   209    14.5   872.6    0.00 
 211   16:00   0.37   86.0    31    5.6   221    12.2   872.6    0.00 
 211   16:10   0.50   87.5    30    7.3   266    12.6   872.7    0.00 
 211   16:20   0.52   87.6    30    5.9   286    11.2   872.9    0.00 
 211   16:30   0.37   84.4    39   12.3   106    23.7   873.4    0.00 
 211   16:40   0.15   78.8    49   20.6   105    26.9   873.7    0.00 
 211   16:50   0.12   77.8    49   17.4    98    25.6   874.0    0.00 
 211   17:00   0.13   78.2    49   14.8    99    20.2   874.2    0.00 
 211   17:10   0.13   78.1    49   11.8   109    21.9   874.4    0.00 
 211   17:20   0.11   78.7    47    6.8    10    12.3   874.7    0.00 
 211   17:30   0.10   76.9    52    7.9   335    18.6   874.9    0.00 
 211   17:40   0.03   75.5    55   10.5   308    20.2   875.1    0.00 
 211   17:50   0.01   72.8    59   18.1   304    29.0   874.9    0.00 
 211   18:00   0.01   73.6    50   15.8   310    27.0   874.9    0.00 
 211   18:10   0.01   74.5    45   11.5   303    22.6   875.0    0.00 
 211   18:20   0.00   76.4    39    8.1   317    15.2   875.0    0.00 
 211   18:30   0.00   77.6    36    5.7   303    11.5   874.9    0.00 
 211   18:40   0.00   78.3    35    3.7   352    11.0   874.8    0.00 
 211   18:50   0.00   77.6    38    5.2   117    11.4   874.9    0.00 
 211   19:00   0.00   76.5    41    3.6    88    10.2   875.1    0.00 
 211   19:10   0.00   76.9    39    2.5     2     7.3   875.2    0.00 
 211   19:20   0.00   77.5    38    2.3    84     5.5   875.2    0.00 
 211   19:30   0.00   76.9    40    7.6   103    12.5   875.1    0.00 
 211   19:40   0.00   75.5    44    8.0    95    13.7   874.9    0.00 
 211   19:50   0.00   74.9    48    3.9    80     9.2   874.7    0.00 
 211   20:00   0.00   74.6    49    4.4     9     9.9   874.4    0.00 
 211   20:10   0.00   75.3    46    4.0   336    11.8   874.3    0.00 
 211   20:20   0.00   76.0    44    2.4     6     6.4   874.4    0.00 
 211   20:30   0.00   76.2    43    1.7   298     4.5   874.6    0.00 
 211   20:40   0.00   76.2    44    1.7   289     4.4   874.5    0.00 
 211   20:50   0.00   76.4    43    2.7   326     5.1   874.3    0.00 
 211   21:00   0.00   76.6    42    2.4   320     5.1   874.2    0.00 
 211   21:10   0.00   76.9    41    2.1    68     4.2   874.0    0.00 
 211   21:20   0.00   77.6    38    3.4   318     6.6   874.2    0.00 
 211   21:30   0.00   79.2    33    3.9   360     8.3   874.3    0.00 
 211   21:40   0.00   80.7    30    5.3    95    10.8   874.3    0.00 
 211   21:50   0.00   80.8    30    4.3   321     9.7   874.3    0.00 
 211   22:00   0.00   79.8    33    5.5   277     8.8   874.4    0.00 
 211   22:10   0.00   78.0    37    2.8   145     6.6   874.5    0.00 
 211   22:20   0.00   77.2    39    1.7   303     2.9   874.4    0.00 
 211   22:30   0.00   76.4    40    0.9   238     1.9   874.3    0.00 
 211   22:40   0.00   76.0    42    2.9   273     5.5   874.2    0.00 
 211   22:50   0.00   74.6    45    3.8   288     5.2   874.1    0.00 
 211   23:00   0.00   77.3    36    2.5   184     5.5   874.2    0.00 
 211   23:10   0.00   78.0    36    3.4   236     6.6   874.2    0.00 
 211   23:20   0.00   76.7    38    5.9   318     7.0   874.1    0.00 
 211   23:30   0.00   77.0    37    3.8   290     5.8   874.1    0.00 
 211   23:40   0.00   77.6    37    2.1   327     3.2   874.0    0.00 
 211   23:50   0.00   76.7    39    3.7   118     6.2   874.0    0.00 
 212    0:00   0.00   76.3    39    1.4    61     3.5   873.9    0.00 
 212    0:10   0.00   75.7    41    4.0   280     7.2   873.8    0.00 
 212    0:20   0.00   76.3    41    3.8   288     4.7   873.7    0.00 
 212    0:30   0.00   76.8    39    1.5   252     3.2   873.7    0.00 
 212    0:40   0.00   77.3    38    0.9   327     2.3   873.6    0.00 
 212    0:50   0.00   76.4    41    2.5   222     4.5   873.7    0.00 
 212    1:00   0.00   75.7    41    1.0   203     3.6   873.6    0.00 
 212    1:10   0.00   75.7    40    0.4   350     1.3   873.4    0.00 
 212    1:20   0.00   73.1    50    1.1   279     3.0   873.4    0.00 
 212    1:30   0.00   73.9    44    3.1   272     4.2   873.3    0.00 
 212    1:40   0.00   74.5    43    1.9   282     3.0   873.3    0.00 
 212    1:50   0.00   73.8    44    4.2   286     5.3   873.3    0.00 
 212    2:00   0.00   74.8    42    2.7   277     4.2   873.3    0.00 

Return to Sweeney Granite Mountains graphs page.


Western Regional Climate Center,wrcc@dri.edu